< < Back
Terminal Aerodrome Forecast


Current Version              Previous Versions:   1  2  3  4  5  6  7  8  9  

Terminal Aerodrome Forecast

481
FTUS42 KMLB 051503 AAA
TAFMCO
TAF AMD
KMCO 051503Z 0515/0612 20010G17KT P6SM SCT025 SCT035
      TEMPO 0515/0517 BKN025
     FM060400 30006KT P6SM BKN035 OVC060
     FM061000 35005KT P6SM BKN020 OVC040=

Latest METAR

089
SAUS70 KWBC 060000 RRD
MTRMCO
METAR KMCO 052353Z 26008KT 10SM FEW080 FEW250 27/18 A3009 RMK AO2 SLP188
T02670183 10311 20267 53013


USA.gov is the U.S. government's official web portal to all federal, state and local government web resources and services.